Terminal Aerodrome Forecast
Issued by NWS

Home | Current Version | Previous Version | Text Only | Print | Product List | Glossary On
Versions: 1 2 3 4 5 6 7 8 9 10 11 12 13 14 15 16 17 18 19 20 21 22 23 24 25 26 27 28 29 30 31 32 33 34 35 36 37 38 39 40 41 42 43 44 45
000
FTUS45 KPSR 310000 AAA
TAFIWA
TAF AMD
KIWA 310015Z 3100/3124 14004KT P6SM VCSH SCT012 OVC018
     FM310300 12004KT P6SM VCSH SCT010 BKN020 OVC035
      TEMPO 3103/3106 5SM -SHRA BR
     FM310600 12003KT 5SM BR SCT012 BKN035 OVC040
     FM311300 10004KT 5SM -SHRA BR BKN012 OVC040
     FM311900 17005KT P6SM VCSH BKN035 OVC060
      AMD LTD TO CLD VIS AND WIND 3103/3113=

USA.gov is the U.S. government's official web portal to all federal, state and local government web resources and services.